Relevés horaires Beauvechain (Belgique)


Relevés horaires à Beauvechain - Mercredi 22 Mars 2017
Heure UTC1 Température [°C] Vent [km/h] Hum. [%] Pres.4 [hPa] Visi. [Km] Nébu. [octa] Préc.5 [mm] Cond.
2m. Res. Ros. Dir.2 Vit. Moy. Raf.3
23:00 6.0 6.0 2.0 ESE 3.7 -- 7.4 75 1013.5(0.4/3h) 20 -- -- --
22:00 6.3 5.3 2.2 E 5.6 -- 9.3 75 1013.3(0.1/3h) 20 -- -- --
21:00 6.6 6.6 2.1 E 3.7 -- 11.1 73 1013.2(0.4/3h) 20 -- -- --
20:00 7.4 6.6 2.1 ESE 5.6 -- 9.3 69 1013.1(0.7/3h) 20 -- -- --
19:00 8.3 7.6 2.4 SE 5.6 -- 11.1 66 1013.2(1.1/3h) 20 -- -- --
18:00 8.8 7.7 1.9 SE 7.4 -- 18.5 62 1012.7(0.5/3h) 20 -- -- --
17:00 9.6 8.7 1.5 SE 7.4 -- 11.1 57 1012.1(-0.1/3h) 20 7/8 -- --
16:00 10.1 9.3 1.4 SE 7.4 -- 11.1 55 1011.8(-0.6/3h) 20 7/8 -- --
15:00 10.2 9.8 0.4 SSE 5.6 -- 18.5 51 1012.1(-0.8/3h) 20 5/8 -- --
14:00 10.4 9.2 -0.1 SSE 9.3 -- 13.0 48 1012.2(-0.8/3h) 20 2/8 -- --
13:00 9.6 8.3 1.3 S 9.3 -- 18.5 56 1012.6(-0.7/3h) 20 1/8 -- --
12:00 9.9 8.3 1.6 S 11.1 -- 18.5 56 1013(-0.4/3h) 20 1/8 -- --
11:00 9.4 8 1.3 SSE 9.3 -- 14.8 57 1013.2(-0.1/3h) 20 1/8 -- --
10:00 8.4 6.5 0.1 S 11.1 -- 14.8 56 1013.5(0.2/3h) 20 1/8 -- --
09:00 7.1 5.3 1.3 SSE 9.3 -- 13.0 67 1013.5(0.0/3h) 20 1/8 -- --
08:00 5.1 4 -1.3 SSE 5.6 -- 9.3 63 1013.6(0.0/3h) 20 1/8 -- --
07:00 3.4 2 -1.4 SSE 5.6 -- 9.3 71 1013.6(-0.3/3h) 20 1/8 -- --
06:00 2.2 0.7 -1.4 S 5.6 -- 9.3 77 1013.7(-0.4/3h) 20 1/8 -- --
05:00 2.1 0.5 -1.3 SSE 5.6 -- 9.3 78 1013.7(-0.7/3h) 20 1/8 -- --
04:00 2.5 1 -1.1 SSE 5.6 -- 9.3 77 1014(-0.5/3h) 20 -- -- --
03:00 3.4 3.4 -1.0 SSE 3.7 -- 9.3 73 1014.2(-0.3/3h) 20 -- -- --
02:00 3.7 3.7 -1.1 S 3.7 -- 5.6 71 1014.2(-0.3/3h) 20 -- -- --
01:00 3.7 3.7 -0.7 S 3.7 -- 5.6 73 1014.5(-0.3/3h) 20 -- -- --
00:00 4.4 4.4 -0.7 S 3.7 -- 5.6 69 1014.5(-0.2/3h) 20 -- -- --

1 Coordinated Universal Time. Actuellement il est 03:00 locale et 01:00 UTC.

2 Le vent souffle depuis la direction indiquée vers la direction oposée.

3 Les rafales max. sont disponible 40 min après l'heure du relevé.

4 Pour les stations d'altitude (plus de 600m) le géopotentiel du niveau le plus proche de la pression obligatoire est indiqué.

5 Les stations disposant d'un diffuseur peuvent indiquer "trace". Cela signifie que des précipitations ont touchés le sol mais que la quantité est inférieure à 0.1 mm.

Récapitulatif de la journée
Température [°C] Vent [km/h] Ensoleillement4 [h] Precipitations totale5 [mm] Pression [Hpa]
Min1 Max.2 Moy.3 Max. Min Max.
1.8 11.5 0 18.5 0 h 0 min 0 1011.8 1014.5

1 Température minimale relevée entre 18:00 UTC la veille et 18:00 UTC le jour donné.

2 Température maximale relevée entre 06:00 UTC le jour donné et 06:00 UTC le lendemain.

3 Vent moyen de la journée basé sur les relevés horaires.

4 Ensoleillement en heures relevé entre 06:00 UTC la veille et 06:00 UTC le jour donné.

5 Précipitations totales tombées entre 06:00 UTC la jour donné et 06:00 UTC le lendemain.

Graphiques horaires